createdAt,value
2018-09-11T00:01:24.765Z,4.33
2018-09-11T00:03:52.959Z,4.83
2018-09-11T00:06:21.044Z,4.37
2018-09-11T00:08:49.312Z,4.57
2018-09-11T00:11:17.486Z,4.57
2018-09-11T00:13:45.572Z,4.50
2018-09-11T00:16:13.724Z,4.53
2018-09-11T00:18:41.807Z,4.63
2018-09-11T00:21:09.903Z,4.83
2018-09-11T00:23:38.057Z,4.77
2018-09-11T00:26:06.125Z,4.53
2018-09-11T00:28:34.145Z,4.67
2018-09-11T00:31:02.169Z,4.90
2018-09-11T00:33:30.463Z,4.50
2018-09-11T00:35:58.480Z,4.70
2018-09-11T00:38:26.745Z,4.90
2018-09-11T00:40:54.813Z,5.50
2018-09-11T00:43:22.831Z,5.20
2018-09-11T00:45:51.149Z,4.60
2018-09-11T00:48:19.234Z,5.20
2018-09-11T00:50:47.811Z,5.33
2018-09-11T00:53:15.975Z,5.20
2018-09-11T00:55:44.008Z,5.77
2018-09-11T00:58:12.119Z,5.77
2018-09-11T01:00:40.146Z,5.13
2018-09-11T01:03:08.276Z,5.43
2018-09-11T01:05:36.340Z,6.43
2018-09-11T01:08:04.373Z,5.00
2018-09-11T01:10:32.404Z,5.60
2018-09-11T01:13:00.460Z,5.33
2018-09-11T01:15:28.490Z,6.50
2018-09-11T01:17:56.580Z,5.47
2018-09-11T01:20:24.606Z,5.07
2018-09-11T01:22:52.640Z,5.60
2018-09-11T01:25:20.675Z,5.60
2018-09-11T01:27:48.711Z,5.67
2018-09-11T01:30:19.407Z,5.10
2018-09-11T01:32:47.501Z,5.63
2018-09-11T01:35:15.691Z,5.07
2018-09-11T01:37:43.766Z,5.60
2018-09-11T01:40:11.866Z,5.50
2018-09-11T01:42:39.928Z,5.80
2018-09-11T01:45:07.995Z,6.07
2018-09-11T01:47:36.077Z,5.73
2018-09-11T01:50:04.259Z,5.70
2018-09-11T01:52:32.318Z,5.30
2018-09-11T01:55:00.396Z,5.90
2018-09-11T01:57:28.484Z,5.73
2018-09-11T01:59:56.564Z,5.40
2018-09-11T02:02:24.723Z,5.67
2018-09-11T02:04:53.292Z,5.53
2018-09-11T02:07:21.367Z,5.33
2018-09-11T02:09:49.435Z,5.23
2018-09-11T02:12:17.449Z,5.27
2018-09-11T02:14:45.591Z,5.43
2018-09-11T02:17:13.621Z,4.97
2018-09-11T02:19:41.640Z,5.00
2018-09-11T02:22:09.698Z,5.50
2018-09-11T02:24:37.762Z,5.13
2018-09-11T02:27:05.826Z,5.23
2018-09-11T02:29:33.906Z,5.33
2018-09-11T02:32:01.930Z,5.13
2018-09-11T02:34:29.959Z,5.67
2018-09-11T02:36:57.986Z,4.87
2018-09-11T02:39:26.036Z,5.77
2018-09-11T02:41:54.052Z,5.33
2018-09-11T02:44:22.075Z,5.53
2018-09-11T02:46:50.188Z,5.33
2018-09-11T02:49:18.219Z,5.17
2018-09-11T02:51:46.287Z,5.57
2018-09-11T02:54:14.414Z,5.97
2018-09-11T02:56:42.446Z,4.80
2018-09-11T02:59:10.567Z,5.50
2018-09-11T03:01:38.592Z,5.43
2018-09-11T03:04:06.724Z,5.13
2018-09-11T03:06:34.782Z,5.60
2018-09-11T03:09:03.059Z,5.07
2018-09-11T03:11:31.079Z,4.97
2018-09-11T03:13:59.097Z,5.60
2018-09-11T03:16:27.162Z,4.77
2018-09-11T03:18:55.207Z,5.23
2018-09-11T03:21:23.307Z,4.90
2018-09-11T03:23:51.382Z,5.43
2018-09-11T03:26:19.453Z,4.80
2018-09-11T03:28:47.519Z,5.77
2018-09-11T03:31:15.548Z,5.40
2018-09-11T03:33:43.574Z,5.13
2018-09-11T03:36:11.646Z,5.37
2018-09-11T03:38:39.683Z,5.23
2018-09-11T03:41:07.775Z,5.10
2018-09-11T03:43:35.795Z,4.87
2018-09-11T03:46:03.844Z,5.17
2018-09-11T03:48:31.894Z,5.60
2018-09-11T03:51:00.020Z,5.07
2018-09-11T03:53:28.155Z,5.30
2018-09-11T03:55:56.171Z,5.03
2018-09-11T03:58:24.196Z,5.23
2018-09-11T04:00:52.327Z,5.23
2018-09-11T04:03:20.355Z,6.07
2018-09-11T04:05:48.385Z,5.67
2018-09-11T04:08:16.406Z,4.93
2018-09-11T04:10:44.474Z,5.73
2018-09-11T04:13:12.526Z,5.87
2018-09-11T04:15:40.547Z,6.13
2018-09-11T04:18:08.698Z,6.57
2018-09-11T04:20:36.758Z,6.63
2018-09-11T04:23:04.836Z,6.57
2018-09-11T04:25:32.904Z,7.43
2018-09-11T04:28:00.938Z,7.77
2018-09-11T04:30:28.974Z,7.70
2018-09-11T04:32:57.011Z,6.93
2018-09-11T04:35:25.036Z,6.97
2018-09-11T04:37:53.161Z,7.07
2018-09-11T04:40:22.159Z,7.37
2018-09-11T04:42:50.252Z,7.77
2018-09-11T04:45:18.247Z,7.33
2018-09-11T04:47:46.275Z,7.20
2018-09-11T04:50:14.302Z,7.50
2018-09-11T04:52:42.395Z,7.50
2018-09-11T04:55:10.423Z,7.03
2018-09-11T04:57:38.486Z,8.43
2018-09-11T05:00:06.678Z,6.83
2018-09-11T05:02:35.256Z,7.13
2018-09-11T05:05:03.279Z,7.40
2018-09-11T05:07:31.347Z,6.50
2018-09-11T05:09:59.410Z,7.10
2018-09-11T05:12:27.487Z,7.37
2018-09-11T05:14:55.563Z,6.63
2018-09-11T05:17:23.616Z,6.27
2018-09-11T05:19:51.645Z,7.20
2018-09-11T05:22:19.667Z,6.20
2018-09-11T05:24:47.739Z,6.20
2018-09-11T05:27:15.855Z,6.80
2018-09-11T05:29:43.926Z,6.47
2018-09-11T05:32:11.935Z,6.20
2018-09-11T05:34:40.147Z,6.67
2018-09-11T05:37:08.247Z,6.07
2018-09-11T05:39:36.296Z,6.17
2018-09-11T05:42:04.394Z,6.07
2018-09-11T05:44:32.463Z,6.50
2018-09-11T05:47:00.528Z,7.20
2018-09-11T05:49:28.587Z,6.30
2018-09-11T05:51:56.661Z,6.67
2018-09-11T05:54:24.702Z,6.40
2018-09-11T05:56:52.748Z,6.80
2018-09-11T05:59:20.782Z,6.93
2018-09-11T06:01:48.827Z,6.93
2018-09-11T06:04:16.850Z,6.83
2018-09-11T06:06:44.978Z,7.13
2018-09-11T06:09:13.866Z,6.53
2018-09-11T06:11:42.113Z,6.47
2018-09-11T06:14:10.319Z,7.97
2018-09-11T06:16:38.419Z,6.70
2018-09-11T06:19:06.662Z,6.97
2018-09-11T06:21:34.714Z,7.30
2018-09-11T06:24:02.744Z,7.23
2018-09-11T06:26:30.796Z,7.60
2018-09-11T06:28:59.207Z,7.97
2018-09-11T06:31:27.192Z,6.60
2018-09-11T06:33:55.216Z,7.33
2018-09-11T06:36:23.250Z,7.33
2018-09-11T06:38:51.355Z,6.53
2018-09-11T06:41:19.393Z,6.33
2018-09-11T06:43:47.410Z,6.67
2018-09-11T06:46:15.445Z,6.83
2018-09-11T06:48:43.496Z,6.73
2018-09-11T06:51:11.511Z,5.87
2018-09-11T06:53:39.578Z,6.80
2018-09-11T06:56:07.628Z,6.63
2018-09-11T06:58:35.649Z,6.10
2018-09-11T07:01:03.670Z,5.53
2018-09-11T07:03:31.854Z,5.80
2018-09-11T07:06:00.034Z,5.70
2018-09-11T07:08:28.195Z,5.00
2018-09-11T07:10:56.271Z,5.57
2018-09-11T07:13:24.258Z,5.37
2018-09-11T07:15:52.377Z,5.57
2018-09-11T07:18:20.418Z,5.63
2018-09-11T07:20:48.562Z,5.57
2018-09-11T07:23:16.582Z,5.97
2018-09-11T07:25:44.719Z,6.03
2018-09-11T07:28:12.754Z,5.33
2018-09-11T07:30:40.792Z,5.57
2018-09-11T07:33:08.936Z,5.43
2018-09-11T07:35:36.959Z,5.47
2018-09-11T07:38:05.019Z,5.00
2018-09-11T07:40:33.165Z,5.33
2018-09-11T07:43:01.311Z,5.13
2018-09-11T07:45:29.483Z,5.27
2018-09-11T07:47:57.491Z,5.43
2018-09-11T07:50:25.647Z,5.87
2018-09-11T07:52:53.718Z,5.63
2018-09-11T07:55:21.774Z,5.37
2018-09-11T07:57:49.862Z,5.37
2018-09-11T08:00:17.906Z,4.60
2018-09-11T08:02:45.986Z,4.83
2018-09-11T08:05:14.099Z,4.50
2018-09-11T08:07:42.107Z,4.23
2018-09-11T08:10:10.139Z,4.67
2018-09-11T08:12:38.176Z,4.77
2018-09-11T08:15:06.596Z,4.63
2018-09-11T08:17:34.614Z,4.40
2018-09-11T08:20:02.688Z,4.87
2018-09-11T08:22:30.695Z,4.67
2018-09-11T08:24:58.746Z,4.93
2018-09-11T08:27:26.797Z,5.10
2018-09-11T08:29:55.099Z,4.80
2018-09-11T08:32:23.134Z,4.57
2018-09-11T08:34:51.145Z,4.47
2018-09-11T08:37:19.159Z,4.73
2018-09-11T08:39:47.289Z,4.50
2018-09-11T08:42:15.307Z,4.50
2018-09-11T08:44:43.407Z,4.77
2018-09-11T08:47:11.440Z,4.10
2018-09-11T08:49:39.467Z,4.83
2018-09-11T08:52:07.545Z,4.50
2018-09-11T08:54:36.007Z,4.40
2018-09-11T08:57:04.076Z,4.43
2018-09-11T08:59:32.132Z,4.00
2018-09-11T09:02:00.188Z,4.50
2018-09-11T09:04:28.236Z,4.60
2018-09-11T09:06:56.284Z,4.93
2018-09-11T09:09:24.330Z,4.33
2018-09-11T09:11:52.366Z,4.50
2018-09-11T09:14:20.469Z,4.07
2018-09-11T09:16:48.499Z,4.97
2018-09-11T09:19:16.602Z,4.13
2018-09-11T09:21:44.686Z,4.30
2018-09-11T09:24:12.795Z,4.43
2018-09-11T09:26:40.823Z,5.13
2018-09-11T09:29:08.895Z,4.67
2018-09-11T09:31:36.941Z,4.83
2018-09-11T09:34:05.039Z,3.90
2018-09-11T09:36:33.109Z,4.03
2018-09-11T09:39:01.112Z,4.50
2018-09-11T09:41:29.157Z,3.97
2018-09-11T09:43:57.266Z,4.60
2018-09-11T09:46:25.286Z,4.00
2018-09-11T09:48:53.792Z,4.53
2018-09-11T09:51:21.846Z,3.90
2018-09-11T09:53:49.879Z,4.03
2018-09-11T09:56:17.995Z,4.13
2018-09-11T09:58:46.060Z,3.97
2018-09-11T10:01:20.597Z,3.70
2018-09-11T10:03:48.616Z,3.50
2018-09-11T10:06:16.643Z,3.77
2018-09-11T10:08:44.702Z,4.10
2018-09-11T10:11:12.736Z,3.80
2018-09-11T10:13:40.842Z,3.60
2018-09-11T10:16:08.907Z,3.80
2018-09-11T10:18:37.046Z,4.03
2018-09-11T10:21:05.160Z,3.97
2018-09-11T10:23:33.190Z,4.07
2018-09-11T10:26:01.307Z,4.20
2018-09-11T10:28:29.344Z,4.27
2018-09-11T10:30:57.363Z,3.90
2018-09-11T10:33:25.413Z,3.87
2018-09-11T10:35:53.487Z,3.47
2018-09-11T10:38:21.543Z,4.00
2018-09-11T10:40:49.629Z,3.77
2018-09-11T10:43:17.652Z,3.93
2018-09-11T10:45:45.674Z,3.37
2018-09-11T10:48:13.735Z,3.03
2018-09-11T10:50:41.803Z,3.73
2018-09-11T10:53:09.826Z,3.60
2018-09-11T10:55:37.939Z,3.17
2018-09-11T10:58:05.974Z,3.83
2018-09-11T11:00:34.053Z,3.23
2018-09-11T11:03:02.504Z,3.17
2018-09-11T11:05:30.530Z,3.03
2018-09-11T11:07:58.554Z,3.20
2018-09-11T11:10:26.626Z,3.50
2018-09-11T11:12:54.661Z,3.60
2018-09-11T11:15:22.670Z,3.40
2018-09-11T11:17:50.703Z,3.53
2018-09-11T11:20:18.747Z,3.17
2018-09-11T11:22:46.768Z,3.30
2018-09-11T11:25:14.815Z,3.47
2018-09-11T11:27:42.871Z,3.87
2018-09-11T11:30:10.972Z,3.20
2018-09-11T11:32:39.150Z,3.40
2018-09-11T11:35:07.191Z,3.70
2018-09-11T11:37:35.279Z,3.33
2018-09-11T11:40:03.376Z,3.67
2018-09-11T11:42:31.419Z,3.30
2018-09-11T11:44:59.499Z,3.90
2018-09-11T11:47:27.583Z,3.43
2018-09-11T11:49:55.688Z,4.00
2018-09-11T11:52:23.710Z,3.27
2018-09-11T11:54:51.774Z,3.67
2018-09-11T11:57:19.851Z,3.83
2018-09-11T11:59:47.935Z,3.63
2018-09-11T12:02:16.031Z,3.33
2018-09-11T12:04:44.088Z,3.70
2018-09-11T12:07:12.144Z,3.43
2018-09-11T12:09:40.213Z,4.10
2018-09-11T12:12:08.299Z,3.43
2018-09-11T12:14:36.341Z,3.63
2018-09-11T12:17:04.458Z,3.17
2018-09-11T12:19:32.444Z,3.57
2018-09-11T12:22:00.578Z,3.43
2018-09-11T12:24:28.663Z,3.67
2018-09-11T12:26:56.691Z,3.77
2018-09-11T12:29:24.729Z,3.93
2018-09-11T12:31:52.813Z,4.40
2018-09-11T12:34:20.909Z,3.37
2018-09-11T12:36:48.955Z,3.70
2018-09-11T12:39:16.975Z,3.80
2018-09-11T12:41:45.042Z,3.43
2018-09-11T12:44:13.095Z,3.80
2018-09-11T12:46:41.343Z,3.77
2018-09-11T12:49:10.157Z,3.90
2018-09-11T12:51:38.280Z,4.60
2018-09-11T12:54:06.355Z,3.43
2018-09-11T12:56:34.399Z,3.80
2018-09-11T12:59:02.441Z,4.17
2018-09-11T13:01:30.549Z,3.93
2018-09-11T13:03:58.576Z,3.87
2018-09-11T13:06:26.624Z,4.03
2018-09-11T13:08:54.674Z,3.93
2018-09-11T13:11:22.726Z,4.13
2018-09-11T13:13:50.978Z,4.37
2018-09-11T13:16:19.013Z,4.10
2018-09-11T13:18:47.178Z,4.30
2018-09-11T13:21:15.336Z,4.13
2018-09-11T13:23:43.456Z,4.53
2018-09-11T13:26:11.573Z,4.37
2018-09-11T13:28:39.619Z,4.70
2018-09-11T13:31:07.711Z,5.45
2018-09-11T13:33:36.016Z,4.60
2018-09-11T13:36:04.172Z,5.43
2018-09-11T13:38:32.243Z,5.73
2018-09-11T13:41:00.517Z,5.40
2018-09-11T13:43:28.559Z,5.67
2018-09-11T13:45:56.591Z,5.70
2018-09-11T13:48:24.630Z,4.90
2018-09-11T13:50:52.712Z,5.63
2018-09-11T13:53:21.374Z,6.03
2018-09-11T13:55:49.400Z,5.47
2018-09-11T13:58:17.448Z,5.50
2018-09-11T14:00:45.594Z,5.67
2018-09-11T14:03:13.619Z,6.00
2018-09-11T14:05:41.752Z,6.13
2018-09-11T14:08:10.419Z,5.73
2018-09-11T14:10:38.522Z,5.67
2018-09-11T14:13:06.581Z,5.40
2018-09-11T14:15:34.598Z,5.93
2018-09-11T14:18:02.606Z,6.17
2018-09-11T14:20:30.737Z,5.60
2018-09-11T14:22:58.769Z,6.13
2018-09-11T14:25:27.205Z,5.80
2018-09-11T14:27:55.230Z,5.67
2018-09-11T14:30:23.252Z,5.60
2018-09-11T14:32:51.295Z,5.77
2018-09-11T14:35:19.371Z,5.37
2018-09-11T14:37:47.495Z,5.90
2018-09-11T14:40:15.522Z,5.70
2018-09-11T14:42:43.541Z,5.40
2018-09-11T14:45:11.575Z,5.50
2018-09-11T14:47:41.560Z,4.90
2018-09-11T14:50:09.809Z,5.20
2018-09-11T14:52:38.353Z,5.60
2018-09-11T14:55:06.659Z,6.07
2018-09-11T14:57:35.081Z,5.40
2018-09-11T15:00:03.522Z,6.30
2018-09-11T15:02:31.611Z,6.47
2018-09-11T15:04:59.695Z,5.67
2018-09-11T15:07:27.728Z,5.93
2018-09-11T15:09:55.983Z,5.70
2018-09-11T15:12:24.035Z,6.03
2018-09-11T15:14:52.299Z,6.30
2018-09-11T15:17:20.376Z,5.70
2018-09-11T15:19:48.439Z,6.40
2018-09-11T15:22:16.984Z,5.70
2018-09-11T15:24:45.071Z,6.23
2018-09-11T15:27:13.148Z,6.33
2018-09-11T15:29:41.299Z,6.10
2018-09-11T15:32:09.386Z,6.43
2018-09-11T15:34:37.593Z,6.43
2018-09-11T15:37:05.876Z,5.83
2018-09-11T15:39:33.951Z,6.50
2018-09-11T15:42:02.065Z,6.73
2018-09-11T15:44:30.185Z,6.67
2018-09-11T15:46:58.927Z,6.10
2018-09-11T15:49:28.846Z,6.23
2018-09-11T15:51:56.899Z,6.27
2018-09-11T15:54:24.947Z,6.47
2018-09-11T15:56:52.970Z,7.10
2018-09-11T15:59:21.047Z,6.47
2018-09-11T16:01:49.119Z,7.10
2018-09-11T16:04:17.189Z,6.97
2018-09-11T16:06:45.258Z,7.43
2018-09-11T16:09:13.503Z,7.17
2018-09-11T16:11:41.795Z,7.30
2018-09-11T16:14:10.706Z,7.00
2018-09-11T16:16:38.726Z,8.17
2018-09-11T16:19:06.930Z,7.83
2018-09-11T16:21:34.958Z,7.87
2018-09-11T16:24:03.062Z,7.50
2018-09-11T16:26:31.775Z,6.83
2018-09-11T16:28:59.971Z,7.30
2018-09-11T16:31:28.415Z,7.03
2018-09-11T16:33:56.455Z,7.07
2018-09-11T16:36:24.562Z,6.40
2018-09-11T16:38:53.327Z,6.07
2018-09-11T16:41:21.346Z,6.47
2018-09-11T16:43:49.403Z,7.27
2018-09-11T16:46:17.435Z,6.87
2018-09-11T16:48:45.710Z,6.97
2018-09-11T16:51:13.759Z,7.17
2018-09-11T16:53:41.889Z,7.40
2018-09-11T16:56:09.919Z,6.40
2018-09-11T16:58:38.016Z,6.77
2018-09-11T17:01:06.036Z,6.33
2018-09-11T17:03:34.082Z,6.10
2018-09-11T17:06:02.250Z,6.23
2018-09-11T17:08:30.315Z,6.27
2018-09-11T17:10:58.393Z,5.83
2018-09-11T17:13:26.475Z,6.10
2018-09-11T17:15:54.495Z,6.07
2018-09-11T17:18:22.520Z,6.17
2018-09-11T17:20:50.576Z,6.27
2018-09-11T17:23:18.606Z,6.80
2018-09-11T17:25:46.654Z,5.83
2018-09-11T17:28:14.785Z,5.87
2018-09-11T17:30:42.853Z,6.80
2018-09-11T17:33:10.879Z,6.23
2018-09-11T17:35:38.940Z,6.50
2018-09-11T17:38:06.971Z,6.50
2018-09-11T17:40:35.037Z,7.23
2018-09-11T17:43:03.076Z,6.57
2018-09-11T17:45:31.119Z,7.00
2018-09-11T17:47:59.154Z,6.70
2018-09-11T17:50:27.737Z,7.80
2018-09-11T17:52:55.815Z,7.07
2018-09-11T17:55:23.942Z,8.17
2018-09-11T17:57:51.946Z,7.80
2018-09-11T18:00:20.129Z,7.83
2018-09-11T18:02:48.274Z,8.27
2018-09-11T18:05:16.258Z,7.67
2018-09-11T18:07:44.364Z,8.33
2018-09-11T18:10:12.423Z,7.53
2018-09-11T18:12:40.485Z,9.27
2018-09-11T18:15:08.517Z,9.07
2018-09-11T18:17:36.624Z,9.63
2018-09-11T18:20:04.715Z,8.80
2018-09-11T18:22:33.077Z,9.53
2018-09-11T18:25:01.174Z,9.30
2018-09-11T18:27:29.559Z,9.20
2018-09-11T18:29:57.706Z,10.37
2018-09-11T18:32:25.837Z,9.43
2018-09-11T18:34:54.123Z,10.53
2018-09-11T18:37:22.252Z,10.20
2018-09-11T18:39:50.245Z,10.83
2018-09-11T18:42:19.395Z,10.73
2018-09-11T18:44:47.619Z,11.43
2018-09-11T18:47:15.639Z,10.93
2018-09-11T18:49:43.672Z,11.70
2018-09-11T18:52:11.822Z,9.73
2018-09-11T18:54:39.863Z,10.23
2018-09-11T18:57:07.936Z,9.90
2018-09-11T18:59:36.038Z,8.67
2018-09-11T19:02:04.079Z,9.33
2018-09-11T19:04:32.157Z,8.53
2018-09-11T19:07:00.232Z,9.17
2018-09-11T19:09:28.564Z,9.00
2018-09-11T19:11:56.659Z,7.83
2018-09-11T19:14:24.742Z,8.97
2018-09-11T19:16:52.779Z,8.10
2018-09-11T19:19:20.794Z,6.67
2018-09-11T19:21:48.876Z,7.90
2018-09-11T19:24:16.965Z,7.47
2018-09-11T19:26:45.125Z,7.53
2018-09-11T19:29:13.217Z,6.50
2018-09-11T19:31:41.360Z,8.47
2018-09-11T19:34:09.508Z,9.07
2018-09-11T19:36:38.343Z,9.07
2018-09-11T19:39:06.843Z,9.20
2018-09-11T19:41:35.163Z,9.10
2018-09-11T19:44:03.460Z,10.23
2018-09-11T19:46:31.568Z,11.23
2018-09-11T19:48:59.996Z,11.53
2018-09-11T19:51:28.062Z,11.43
2018-09-11T19:53:56.115Z,11.80
2018-09-11T19:56:24.180Z,11.40
2018-09-11T19:58:52.537Z,11.50
2018-09-11T20:01:20.553Z,11.97
2018-09-11T20:03:48.811Z,11.23
2018-09-11T20:06:16.903Z,11.13
2018-09-11T20:08:44.974Z,11.83
2018-09-11T20:11:13.030Z,11.77
2018-09-11T20:13:41.154Z,12.07
2018-09-11T20:16:09.280Z,11.27
2018-09-11T20:18:37.396Z,13.00
2018-09-11T20:21:05.442Z,13.27
2018-09-11T20:23:33.492Z,13.90
2018-09-11T20:26:01.539Z,13.90
2018-09-11T20:28:29.640Z,15.17
2018-09-11T20:30:57.723Z,13.93
2018-09-11T20:33:25.794Z,13.57
2018-09-11T20:35:53.890Z,13.00
2018-09-11T20:38:21.968Z,12.87
2018-09-11T20:40:50.003Z,11.93
2018-09-11T20:43:18.088Z,11.87
2018-09-11T20:45:46.145Z,11.47
2018-09-11T20:48:14.328Z,12.87
2018-09-11T20:50:42.390Z,12.50
2018-09-11T20:53:10.423Z,12.67
2018-09-11T20:55:38.552Z,13.13
2018-09-11T20:58:06.590Z,12.77
2018-09-11T21:00:34.648Z,13.43
2018-09-11T21:03:02.691Z,13.47
2018-09-11T21:05:30.820Z,13.37
2018-09-11T21:07:58.998Z,12.33
2018-09-11T21:10:27.079Z,12.37
2018-09-11T21:12:55.128Z,11.00
2018-09-11T21:15:23.216Z,11.57
2018-09-11T21:17:51.296Z,10.07
2018-09-11T21:20:19.327Z,9.40
2018-09-11T21:22:47.451Z,9.20
2018-09-11T21:25:15.588Z,8.57
2018-09-11T21:27:43.630Z,8.67
2018-09-11T21:30:11.670Z,8.40
2018-09-11T21:32:39.702Z,9.13
2018-09-11T21:35:07.753Z,8.70
2018-09-11T21:37:35.816Z,8.10
2018-09-11T21:40:03.955Z,8.00
2018-09-11T21:42:31.975Z,7.80
2018-09-11T21:45:00.031Z,7.73
2018-09-11T21:47:28.079Z,7.27
2018-09-11T21:49:56.108Z,7.70
2018-09-11T21:52:24.186Z,7.73
2018-09-11T21:54:52.255Z,6.50
2018-09-11T21:57:20.295Z,7.07
2018-09-11T21:59:48.318Z,7.10
2018-09-11T22:02:16.461Z,6.70
2018-09-11T22:04:44.645Z,7.23
2018-09-11T22:07:12.723Z,7.37
2018-09-11T22:09:40.784Z,7.07
2018-09-11T22:12:08.908Z,7.63
2018-09-11T22:14:36.953Z,9.03
2018-09-11T22:17:04.987Z,9.07
2018-09-11T22:19:33.050Z,7.47
2018-09-11T22:22:01.086Z,8.90
2018-09-11T22:24:29.128Z,8.80
2018-09-11T22:26:57.204Z,7.93
2018-09-11T22:29:25.261Z,8.20
2018-09-11T22:31:53.359Z,8.47
2018-09-11T22:34:21.393Z,9.07
2018-09-11T22:36:49.427Z,9.57
2018-09-11T22:39:17.455Z,9.20
2018-09-11T22:41:45.548Z,10.63
2018-09-11T22:44:13.588Z,10.10
2018-09-11T22:46:41.643Z,10.00
2018-09-11T22:49:09.731Z,9.20
2018-09-11T22:51:37.814Z,9.30
2018-09-11T22:54:06.083Z,9.70
2018-09-11T22:56:34.146Z,9.23
2018-09-11T22:59:02.180Z,9.37
2018-09-11T23:01:30.198Z,8.87
2018-09-11T23:03:58.235Z,8.30
2018-09-11T23:06:26.264Z,9.07
2018-09-11T23:08:54.303Z,9.00
2018-09-11T23:11:22.330Z,8.80
2018-09-11T23:13:50.386Z,8.23
2018-09-11T23:16:18.415Z,8.03
2018-09-11T23:18:46.620Z,9.03
2018-09-11T23:21:14.650Z,9.30
2018-09-11T23:23:42.743Z,8.73
2018-09-11T23:26:10.815Z,8.53
2018-09-11T23:28:38.983Z,9.77
2018-09-11T23:31:07.054Z,9.43
2018-09-11T23:33:35.128Z,8.17
2018-09-11T23:36:03.196Z,8.37
2018-09-11T23:38:31.263Z,9.07
2018-09-11T23:40:59.295Z,9.10
2018-09-11T23:43:27.319Z,8.03
2018-09-11T23:45:55.351Z,9.07
2018-09-11T23:48:23.406Z,10.47
2018-09-11T23:50:51.449Z,9.33
2018-09-11T23:53:19.476Z,9.90
2018-09-11T23:55:47.550Z,9.27
2018-09-11T23:58:15.680Z,9.07
